sensor_id;sensor_type;location;lat;lon;timestamp;P1;durP1;ratioP1;P2;durP2;ratioP2
76729;SDS011;65653;53.106;18.046;2023-02-15T11:58:56;33.80;;;15.70;;
76729;SDS011;65653;53.106;18.046;2023-02-15T12:04:18;29.30;;;16.40;;
76729;SDS011;65653;53.106;18.046;2023-02-15T12:07:13;26.40;;;15.70;;
76729;SDS011;65653;53.106;18.046;2023-02-15T12:09:49;27.10;;;14.90;;
76729;SDS011;65653;53.106;18.046;2023-02-15T12:12:38;26.70;;;13.30;;
76729;SDS011;65653;53.106;18.046;2023-02-15T12:15:07;27.50;;;14.60;;
76729;SDS011;65653;53.106;18.046;2023-02-15T12:17:38;21.90;;;12.50;;
76729;SDS011;65653;53.106;18.046;2023-02-15T12:22:39;28.70;;;14.50;;
76729;SDS011;65653;53.106;18.046;2023-02-15T12:25:35;35.30;;;18.40;;
76729;SDS011;65653;53.106;18.046;2023-02-15T12:28:01;30.40;;;15.30;;
76729;SDS011;65653;53.106;18.046;2023-02-15T12:30:34;41.90;;;22.00;;
76729;SDS011;65653;53.106;18.046;2023-02-15T12:33:17;37.50;;;19.80;;
76729;SDS011;65653;53.106;18.046;2023-02-15T12:35:46;40.80;;;21.30;;
76729;SDS011;65653;53.106;18.046;2023-02-15T12:40:43;31.50;;;16.30;;
76729;SDS011;65653;53.106;18.046;2023-02-15T12:43:34;23.20;;;13.00;;
76729;SDS011;65653;53.106;18.046;2023-02-15T12:46:23;28.30;;;13.90;;
76729;SDS011;65653;53.106;18.046;2023-02-15T12:49:05;37.30;;;20.40;;
76729;SDS011;65653;53.106;18.046;2023-02-15T12:51:41;32.50;;;15.90;;
76729;SDS011;65653;53.106;18.046;2023-02-15T12:54:17;26.40;;;12.70;;
76729;SDS011;65653;53.106;18.046;2023-02-15T12:56:52;33.00;;;16.00;;
76729;SDS011;65653;53.106;18.046;2023-02-15T12:59:19;36.10;;;18.10;;
76729;SDS011;65653;53.106;18.046;2023-02-15T13:01:46;30.70;;;15.00;;
76729;SDS011;65653;53.106;18.046;2023-02-15T13:04:24;32.00;;;15.90;;
76729;SDS011;65653;53.106;18.046;2023-02-15T13:06:57;30.60;;;14.50;;
76729;SDS011;65653;53.106;18.046;2023-02-15T13:14:48;31.30;;;16.00;;
76729;SDS011;65653;53.106;18.046;2023-02-15T13:17:23;33.80;;;16.20;;
76729;SDS011;65653;53.106;18.046;2023-02-15T13:19:56;38.20;;;18.60;;
76729;SDS011;65653;53.106;18.046;2023-02-15T13:22:33;36.30;;;17.00;;
76729;SDS011;65653;53.106;18.046;2023-02-15T13:25:11;22.60;;;10.40;;
76729;SDS011;65653;53.106;18.046;2023-02-15T13:27:44;34.50;;;17.40;;
76729;SDS011;65653;53.106;18.046;2023-02-15T13:30:36;38.40;;;20.20;;
76729;SDS011;65653;53.106;18.046;2023-02-15T13:33:06;44.40;;;20.10;;
76729;SDS011;65653;53.106;18.046;2023-02-15T13:36:01;43.50;;;22.70;;
76729;SDS011;65653;53.106;18.046;2023-02-15T13:38:45;39.00;;;17.90;;
76729;SDS011;65653;53.106;18.046;2023-02-15T13:41:14;30.00;;;13.50;;
76729;SDS011;65653;53.106;18.046;2023-02-15T13:46:51;43.50;;;21.10;;
76729;SDS011;65653;53.106;18.046;2023-02-15T13:54:48;37.40;;;18.60;;
76729;SDS011;65653;53.106;18.046;2023-02-15T14:00:28;29.00;;;12.40;;
76729;SDS011;65653;53.106;18.046;2023-02-15T14:14:02;32.00;;;12.80;;
76729;SDS011;65653;53.106;18.046;2023-02-15T14:16:55;44.10;;;19.80;;
76729;SDS011;65653;53.106;18.046;2023-02-15T14:30:22;45.10;;;18.20;;
76729;SDS011;65653;53.106;18.046;2023-02-15T14:32:59;44.80;;;20.10;;
76729;SDS011;65653;53.106;18.046;2023-02-15T14:35:31;31.40;;;13.00;;
76729;SDS011;65653;53.106;18.046;2023-02-15T14:49:10;40.70;;;18.40;;
76729;SDS011;65653;53.106;18.046;2023-02-15T14:56:45;37.80;;;15.50;;
76729;SDS011;65653;53.106;18.046;2023-02-15T15:02:25;22.10;;;9.70;;
76729;SDS011;65653;53.106;18.046;2023-02-15T15:12:52;49.10;;;21.20;;
76729;SDS011;65653;53.106;18.046;2023-02-15T15:18:07;31.80;;;14.10;;
76729;SDS011;65653;53.106;18.046;2023-02-15T15:20:41;41.00;;;16.00;;
76729;SDS011;65653;53.106;18.046;2023-02-15T15:25:54;46.30;;;18.60;;
76729;SDS011;65653;53.106;18.046;2023-02-15T15:31:06;40.60;;;17.30;;
76729;SDS011;65653;53.106;18.046;2023-02-15T15:33:46;49.10;;;17.40;;
76729;SDS011;65653;53.106;18.046;2023-02-15T15:36:26;48.50;;;20.80;;
76729;SDS011;65653;53.106;18.046;2023-02-15T15:39:24;34.70;;;15.10;;
76729;SDS011;65653;53.106;18.046;2023-02-15T15:42:27;53.50;;;21.50;;
76729;SDS011;65653;53.106;18.046;2023-02-15T15:45:22;47.60;;;18.40;;
76729;SDS011;65653;53.106;18.046;2023-02-15T15:48:19;53.30;;;20.50;;
76729;SDS011;65653;53.106;18.046;2023-02-15T15:51:00;44.50;;;17.50;;
76729;SDS011;65653;53.106;18.046;2023-02-15T15:53:33;42.80;;;17.10;;
76729;SDS011;65653;53.106;18.046;2023-02-15T15:56:18;35.10;;;15.70;;
76729;SDS011;65653;53.106;18.046;2023-02-15T15:58:52;44.50;;;19.30;;
76729;SDS011;65653;53.106;18.046;2023-02-15T16:01:26;48.70;;;19.00;;
76729;SDS011;65653;53.106;18.046;2023-02-15T16:03:55;42.00;;;15.30;;
76729;SDS011;65653;53.106;18.046;2023-02-15T16:08:55;32.90;;;11.50;;
76729;SDS011;65653;53.106;18.046;2023-02-15T16:11:24;36.40;;;15.00;;
76729;SDS011;65653;53.106;18.046;2023-02-15T16:13:53;37.70;;;16.50;;
76729;SDS011;65653;53.106;18.046;2023-02-15T16:16:24;33.00;;;13.70;;
76729;SDS011;65653;53.106;18.046;2023-02-15T16:18:54;47.70;;;18.40;;
76729;SDS011;65653;53.106;18.046;2023-02-15T16:21:27;33.60;;;14.20;;
76729;SDS011;65653;53.106;18.046;2023-02-15T16:32:04;44.40;;;15.60;;
76729;SDS011;65653;53.106;18.046;2023-02-15T16:34:55;37.40;;;12.70;;
76729;SDS011;65653;53.106;18.046;2023-02-15T16:37:30;35.10;;;12.50;;
76729;SDS011;65653;53.106;18.046;2023-02-15T16:39:59;35.50;;;14.70;;
76729;SDS011;65653;53.106;18.046;2023-02-15T16:42:26;49.40;;;19.30;;
76729;SDS011;65653;53.106;18.046;2023-02-15T16:47:29;35.30;;;12.40;;
76729;SDS011;65653;53.106;18.046;2023-02-15T16:50:00;35.30;;;12.30;;
76729;SDS011;65653;53.106;18.046;2023-02-15T16:52:30;46.90;;;16.10;;
76729;SDS011;65653;53.106;18.046;2023-02-15T16:55:03;53.10;;;17.70;;
76729;SDS011;65653;53.106;18.046;2023-02-15T16:57:34;33.10;;;12.10;;
76729;SDS011;65653;53.106;18.046;2023-02-15T17:00:04;38.60;;;14.20;;
76729;SDS011;65653;53.106;18.046;2023-02-15T17:02:34;33.60;;;12.90;;
76729;SDS011;65653;53.106;18.046;2023-02-15T17:07:41;28.00;;;11.40;;
76729;SDS011;65653;53.106;18.046;2023-02-15T17:11:01;29.30;;;10.90;;
76729;SDS011;65653;53.106;18.046;2023-02-15T17:15:41;77.60;;;25.60;;
76729;SDS011;65653;53.106;18.046;2023-02-15T17:18:21;63.60;;;21.80;;
76729;SDS011;65653;53.106;18.046;2023-02-15T17:20:51;43.00;;;14.70;;
76729;SDS011;65653;53.106;18.046;2023-02-15T17:26:00;43.30;;;17.10;;
76729;SDS011;65653;53.106;18.046;2023-02-15T17:28:37;54.80;;;21.20;;
76729;SDS011;65653;53.106;18.046;2023-02-15T17:31:12;52.80;;;19.90;;
76729;SDS011;65653;53.106;18.046;2023-02-15T17:33:40;50.20;;;19.70;;
76729;SDS011;65653;53.106;18.046;2023-02-15T17:36:14;81.50;;;27.30;;
76729;SDS011;65653;53.106;18.046;2023-02-15T17:41:24;89.00;;;27.90;;
76729;SDS011;65653;53.106;18.046;2023-02-15T17:43:56;78.00;;;25.90;;
76729;SDS011;65653;53.106;18.046;2023-02-15T17:46:24;60.80;;;19.50;;
76729;SDS011;65653;53.106;18.046;2023-02-15T17:48:53;42.80;;;13.90;;
76729;SDS011;65653;53.106;18.046;2023-02-15T17:51:22;77.80;;;24.60;;
76729;SDS011;65653;53.106;18.046;2023-02-15T17:53:49;78.50;;;21.90;;
76729;SDS011;65653;53.106;18.046;2023-02-15T17:56:35;99.50;;;29.50;;
76729;SDS011;65653;53.106;18.046;2023-02-15T17:59:03;56.00;;;20.20;;
76729;SDS011;65653;53.106;18.046;2023-02-15T18:01:34;44.70;;;17.50;;
76729;SDS011;65653;53.106;18.046;2023-02-15T18:04:24;43.50;;;17.00;;
76729;SDS011;65653;53.106;18.046;2023-02-15T18:07:09;58.10;;;17.90;;
76729;SDS011;65653;53.106;18.046;2023-02-15T18:09:57;67.60;;;22.10;;
76729;SDS011;65653;53.106;18.046;2023-02-15T18:12:43;47.30;;;15.00;;
76729;SDS011;65653;53.106;18.046;2023-02-15T18:15:09;58.40;;;19.00;;
76729;SDS011;65653;53.106;18.046;2023-02-15T18:17:39;65.90;;;18.50;;
76729;SDS011;65653;53.106;18.046;2023-02-15T18:20:14;48.10;;;14.70;;
76729;SDS011;65653;53.106;18.046;2023-02-15T18:22:45;84.30;;;22.20;;
76729;SDS011;65653;53.106;18.046;2023-02-15T18:25:13;68.60;;;20.10;;
76729;SDS011;65653;53.106;18.046;2023-02-15T18:27:42;84.70;;;26.20;;
76729;SDS011;65653;53.106;18.046;2023-02-15T18:30:13;77.00;;;27.40;;
76729;SDS011;65653;53.106;18.046;2023-02-15T18:32:43;61.90;;;22.60;;
76729;SDS011;65653;53.106;18.046;2023-02-15T18:35:15;66.60;;;24.50;;
76729;SDS011;65653;53.106;18.046;2023-02-15T18:37:43;84.40;;;26.20;;
76729;SDS011;65653;53.106;18.046;2023-02-15T18:40:15;110.70;;;30.40;;
76729;SDS011;65653;53.106;18.046;2023-02-15T18:42:45;106.90;;;27.30;;
76729;SDS011;65653;53.106;18.046;2023-02-15T18:47:40;91.90;;;27.50;;
76729;SDS011;65653;53.106;18.046;2023-02-15T18:50:08;79.80;;;26.10;;
76729;SDS011;65653;53.106;18.046;2023-02-15T18:52:36;36.60;;;14.70;;
76729;SDS011;65653;53.106;18.046;2023-02-15T18:55:12;53.50;;;18.20;;
76729;SDS011;65653;53.106;18.046;2023-02-15T18:57:44;50.70;;;17.70;;
76729;SDS011;65653;53.106;18.046;2023-02-15T19:00:15;70.20;;;20.60;;
76729;SDS011;65653;53.106;18.046;2023-02-15T19:02:43;74.40;;;19.90;;
76729;SDS011;65653;53.106;18.046;2023-02-15T19:05:10;69.00;;;20.70;;
76729;SDS011;65653;53.106;18.046;2023-02-15T19:07:38;72.40;;;22.70;;
76729;SDS011;65653;53.106;18.046;2023-02-15T19:10:05;88.60;;;26.50;;
76729;SDS011;65653;53.106;18.046;2023-02-15T19:12:34;47.00;;;15.70;;
76729;SDS011;65653;53.106;18.046;2023-02-15T19:15:00;59.10;;;19.30;;
76729;SDS011;65653;53.106;18.046;2023-02-15T19:17:27;88.30;;;25.90;;
76729;SDS011;65653;53.106;18.046;2023-02-15T19:19:54;66.30;;;19.80;;
76729;SDS011;65653;53.106;18.046;2023-02-15T19:22:24;76.30;;;23.20;;
76729;SDS011;65653;53.106;18.046;2023-02-15T19:24:53;65.60;;;19.00;;
76729;SDS011;65653;53.106;18.046;2023-02-15T19:27:27;94.80;;;27.80;;
76729;SDS011;65653;53.106;18.046;2023-02-15T19:30:01;95.50;;;28.90;;
76729;SDS011;65653;53.106;18.046;2023-02-15T19:32:33;110.00;;;34.30;;
76729;SDS011;65653;53.106;18.046;2023-02-15T19:34:59;94.40;;;29.70;;
76729;SDS011;65653;53.106;18.046;2023-02-15T19:37:33;59.40;;;22.30;;
76729;SDS011;65653;53.106;18.046;2023-02-15T19:40:04;58.90;;;20.90;;
76729;SDS011;65653;53.106;18.046;2023-02-15T19:42:32;65.00;;;21.00;;
76729;SDS011;65653;53.106;18.046;2023-02-15T19:44:59;64.10;;;19.30;;
76729;SDS011;65653;53.106;18.046;2023-02-15T19:47:26;94.70;;;23.90;;
76729;SDS011;65653;53.106;18.046;2023-02-15T19:49:54;133.80;;;27.00;;
76729;SDS011;65653;53.106;18.046;2023-02-15T19:52:26;106.40;;;25.30;;
76729;SDS011;65653;53.106;18.046;2023-02-15T19:54:53;68.70;;;17.70;;
76729;SDS011;65653;53.106;18.046;2023-02-15T19:57:20;58.90;;;16.70;;
76729;SDS011;65653;53.106;18.046;2023-02-15T19:59:47;71.00;;;18.40;;
76729;SDS011;65653;53.106;18.046;2023-02-15T20:02:14;44.30;;;13.50;;
76729;SDS011;65653;53.106;18.046;2023-02-15T20:04:45;50.60;;;16.50;;
76729;SDS011;65653;53.106;18.046;2023-02-15T20:07:17;38.70;;;13.50;;
76729;SDS011;65653;53.106;18.046;2023-02-15T20:09:53;47.20;;;16.20;;
76729;SDS011;65653;53.106;18.046;2023-02-15T20:12:22;42.00;;;13.20;;
76729;SDS011;65653;53.106;18.046;2023-02-15T20:14:51;48.70;;;15.70;;
76729;SDS011;65653;53.106;18.046;2023-02-15T20:17:18;41.00;;;14.40;;
76729;SDS011;65653;53.106;18.046;2023-02-15T20:19:44;53.60;;;16.80;;
76729;SDS011;65653;53.106;18.046;2023-02-15T20:22:20;44.00;;;14.50;;
76729;SDS011;65653;53.106;18.046;2023-02-15T20:24:49;70.30;;;19.30;;
76729;SDS011;65653;53.106;18.046;2023-02-15T20:27:17;86.90;;;27.60;;
76729;SDS011;65653;53.106;18.046;2023-02-15T20:29:45;70.60;;;21.50;;
76729;SDS011;65653;53.106;18.046;2023-02-15T20:32:11;71.70;;;21.70;;
76729;SDS011;65653;53.106;18.046;2023-02-15T20:34:38;81.80;;;24.60;;
76729;SDS011;65653;53.106;18.046;2023-02-15T20:37:04;93.50;;;25.00;;
76729;SDS011;65653;53.106;18.046;2023-02-15T20:39:31;100.20;;;26.20;;
76729;SDS011;65653;53.106;18.046;2023-02-15T20:42:00;103.60;;;30.90;;
76729;SDS011;65653;53.106;18.046;2023-02-15T20:44:27;78.70;;;27.50;;
76729;SDS011;65653;53.106;18.046;2023-02-15T20:46:57;76.80;;;26.60;;
76729;SDS011;65653;53.106;18.046;2023-02-15T20:49:25;85.70;;;28.10;;
76729;SDS011;65653;53.106;18.046;2023-02-15T20:51:53;105.50;;;29.20;;
76729;SDS011;65653;53.106;18.046;2023-02-15T20:54:22;118.80;;;29.70;;
76729;SDS011;65653;53.106;18.046;2023-02-15T20:56:51;124.80;;;32.00;;
76729;SDS011;65653;53.106;18.046;2023-02-15T21:01:48;79.90;;;27.00;;
76729;SDS011;65653;53.106;18.046;2023-02-15T21:04:18;76.30;;;25.70;;
76729;SDS011;65653;53.106;18.046;2023-02-15T21:09:15;63.00;;;21.50;;
76729;SDS011;65653;53.106;18.046;2023-02-15T21:11:42;58.90;;;19.90;;
76729;SDS011;65653;53.106;18.046;2023-02-15T21:14:19;92.30;;;23.80;;
76729;SDS011;65653;53.106;18.046;2023-02-15T21:16:48;127.40;;;31.00;;
76729;SDS011;65653;53.106;18.046;2023-02-15T21:19:23;95.20;;;22.20;;
76729;SDS011;65653;53.106;18.046;2023-02-15T21:21:51;78.80;;;18.40;;
76729;SDS011;65653;53.106;18.046;2023-02-15T21:24:22;106.30;;;22.90;;
76729;SDS011;65653;53.106;18.046;2023-02-15T21:26:51;85.20;;;20.80;;
76729;SDS011;65653;53.106;18.046;2023-02-15T21:29:23;108.00;;;24.50;;
76729;SDS011;65653;53.106;18.046;2023-02-15T21:31:52;121.70;;;31.90;;
76729;SDS011;65653;53.106;18.046;2023-02-15T21:34:19;115.00;;;28.80;;
76729;SDS011;65653;53.106;18.046;2023-02-15T21:36:46;95.90;;;27.30;;
76729;SDS011;65653;53.106;18.046;2023-02-15T21:39:25;48.20;;;17.80;;
76729;SDS011;65653;53.106;18.046;2023-02-15T21:41:55;58.60;;;20.80;;
76729;SDS011;65653;53.106;18.046;2023-02-15T21:44:40;83.00;;;23.70;;
76729;SDS011;65653;53.106;18.046;2023-02-15T21:47:26;97.40;;;27.60;;
76729;SDS011;65653;53.106;18.046;2023-02-15T21:50:23;118.20;;;30.30;;
76729;SDS011;65653;53.106;18.046;2023-02-15T21:53:10;107.80;;;27.20;;
76729;SDS011;65653;53.106;18.046;2023-02-15T21:55:38;110.60;;;30.90;;
76729;SDS011;65653;53.106;18.046;2023-02-15T21:58:05;80.60;;;27.90;;
76729;SDS011;65653;53.106;18.046;2023-02-15T22:00:32;78.10;;;26.80;;
76729;SDS011;65653;53.106;18.046;2023-02-15T22:02:59;84.60;;;25.10;;
76729;SDS011;65653;53.106;18.046;2023-02-15T22:05:28;99.60;;;29.40;;
76729;SDS011;65653;53.106;18.046;2023-02-15T22:07:56;115.50;;;30.80;;
76729;SDS011;65653;53.106;18.046;2023-02-15T22:10:32;112.20;;;29.30;;
76729;SDS011;65653;53.106;18.046;2023-02-15T22:12:59;113.90;;;30.10;;
76729;SDS011;65653;53.106;18.046;2023-02-15T22:15:30;98.60;;;28.90;;
76729;SDS011;65653;53.106;18.046;2023-02-15T22:18:01;71.00;;;24.60;;
76729;SDS011;65653;53.106;18.046;2023-02-15T22:20:28;72.80;;;25.30;;
76729;SDS011;65653;53.106;18.046;2023-02-15T22:22:54;85.10;;;27.60;;
76729;SDS011;65653;53.106;18.046;2023-02-15T22:25:24;101.50;;;28.10;;
76729;SDS011;65653;53.106;18.046;2023-02-15T22:27:52;113.30;;;29.20;;
76729;SDS011;65653;53.106;18.046;2023-02-15T22:30:21;105.30;;;29.50;;
76729;SDS011;65653;53.106;18.046;2023-02-15T22:32:51;104.60;;;28.30;;
76729;SDS011;65653;53.106;18.046;2023-02-15T22:35:19;117.40;;;29.10;;
76729;SDS011;65653;53.106;18.046;2023-02-15T22:37:48;80.90;;;25.70;;
76729;SDS011;65653;53.106;18.046;2023-02-15T22:40:15;59.60;;;21.50;;
76729;SDS011;65653;53.106;18.046;2023-02-15T22:42:44;69.10;;;23.00;;
76729;SDS011;65653;53.106;18.046;2023-02-15T22:45:16;90.40;;;25.00;;
76729;SDS011;65653;53.106;18.046;2023-02-15T22:47:46;111.50;;;30.20;;
76729;SDS011;65653;53.106;18.046;2023-02-15T22:50:14;124.90;;;30.90;;
76729;SDS011;65653;53.106;18.046;2023-02-15T22:52:46;128.00;;;31.40;;
76729;SDS011;65653;53.106;18.046;2023-02-15T22:55:17;75.20;;;26.70;;
76729;SDS011;65653;53.106;18.046;2023-02-15T22:57:47;85.30;;;28.00;;
76729;SDS011;65653;53.106;18.046;2023-02-15T23:00:17;81.70;;;27.00;;
76729;SDS011;65653;53.106;18.046;2023-02-15T23:02:46;140.10;;;32.10;;
76729;SDS011;65653;53.106;18.046;2023-02-15T23:05:20;151.20;;;36.30;;
76729;SDS011;65653;53.106;18.046;2023-02-15T23:07:49;142.00;;;36.50;;
76729;SDS011;65653;53.106;18.046;2023-02-15T23:10:17;100.40;;;32.30;;
76729;SDS011;65653;53.106;18.046;2023-02-15T23:12:53;68.10;;;22.00;;
76729;SDS011;65653;53.106;18.046;2023-02-15T23:15:46;67.40;;;23.10;;
76729;SDS011;65653;53.106;18.046;2023-02-15T23:20:47;137.50;;;32.50;;
76729;SDS011;65653;53.106;18.046;2023-02-15T23:23:16;130.10;;;29.50;;
76729;SDS011;65653;53.106;18.046;2023-02-15T23:25:45;134.20;;;34.10;;
76729;SDS011;65653;53.106;18.046;2023-02-15T23:28:19;93.70;;;29.70;;
76729;SDS011;65653;53.106;18.046;2023-02-15T23:30:48;77.00;;;25.30;;
76729;SDS011;65653;53.106;18.046;2023-02-15T23:33:15;91.50;;;25.70;;
76729;SDS011;65653;53.106;18.046;2023-02-15T23:35:48;136.60;;;31.00;;
76729;SDS011;65653;53.106;18.046;2023-02-15T23:38:19;150.80;;;34.10;;
76729;SDS011;65653;53.106;18.046;2023-02-15T23:40:52;135.90;;;32.60;;
76729;SDS011;65653;53.106;18.046;2023-02-15T23:43:42;72.80;;;22.60;;
76729;SDS011;65653;53.106;18.046;2023-02-15T23:46:19;72.10;;;22.60;;
76729;SDS011;65653;53.106;18.046;2023-02-15T23:48:49;81.20;;;26.20;;
76729;SDS011;65653;53.106;18.046;2023-02-15T23:51:15;81.10;;;22.20;;
76729;SDS011;65653;53.106;18.046;2023-02-15T23:53:43;109.10;;;26.40;;
76729;SDS011;65653;53.106;18.046;2023-02-15T23:56:10;104.10;;;26.30;;
76729;SDS011;65653;53.106;18.046;2023-02-15T23:58:39;130.40;;;30.30;;
